createdAt,value
2019-04-21T00:00:58.122Z,20.17
2019-04-21T00:03:34.846Z,19.80
2019-04-21T00:06:15.685Z,19.43
2019-04-21T00:08:50.890Z,18.53
2019-04-21T00:11:25.063Z,17.57
2019-04-21T00:13:45.167Z,19.30
2019-04-21T00:16:07.611Z,19.80
2019-04-21T00:19:01.050Z,19.20
2019-04-21T00:21:34.443Z,18.45
2019-04-21T00:24:23.966Z,17.17
2019-04-21T00:27:02.489Z,17.07
2019-04-21T00:29:38.342Z,19.70
2019-04-21T00:32:03.321Z,18.97
2019-04-21T00:34:19.783Z,17.80
2019-04-21T00:37:01.225Z,18.23
2019-04-21T00:39:48.984Z,18.97
2019-04-21T00:42:12.911Z,19.43
2019-04-21T00:44:36.675Z,19.17
2019-04-21T00:47:18.109Z,19.03
2019-04-21T00:49:53.996Z,17.27
2019-04-21T00:52:52.543Z,18.57
2019-04-21T00:55:44.407Z,17.73
2019-04-21T00:58:17.625Z,20.03
2019-04-21T01:00:46.234Z,19.60
2019-04-21T01:03:24.598Z,20.27
2019-04-21T01:05:51.662Z,19.57
2019-04-21T01:08:21.702Z,18.30
2019-04-21T01:10:49.227Z,18.27
2019-04-21T01:13:27.769Z,20.20
2019-04-21T01:15:59.578Z,20.40
2019-04-21T01:18:29.469Z,18.70
2019-04-21T01:20:39.640Z,19.23
2019-04-21T01:23:10.552Z,18.67
2019-04-21T01:25:51.558Z,19.13
2019-04-21T01:28:32.297Z,19.20
2019-04-21T01:31:07.512Z,19.10
2019-04-21T01:33:38.336Z,19.30
2019-04-21T01:36:12.890Z,20.03
2019-04-21T01:39:02.124Z,20.73
2019-04-21T01:41:21.859Z,19.27
2019-04-21T01:43:45.171Z,19.37
2019-04-21T01:46:14.142Z,19.47
2019-04-21T01:48:45.886Z,18.73
2019-04-21T01:51:20.967Z,18.13
2019-04-21T01:54:04.740Z,18.95
2019-04-21T01:56:55.674Z,19.53
2019-04-21T01:59:26.956Z,19.10
2019-04-21T02:02:05.149Z,19.00
2019-04-21T02:04:42.860Z,19.17
2019-04-21T02:07:13.157Z,18.67
2019-04-21T02:09:44.335Z,19.50
2019-04-21T02:12:17.728Z,19.37
2019-04-21T02:14:50.379Z,18.80
2019-04-21T02:17:17.347Z,19.67
2019-04-21T02:19:41.216Z,19.23
2019-04-21T02:22:26.471Z,19.63
2019-04-21T02:24:59.214Z,19.13
2019-04-21T02:27:23.766Z,18.87
2019-04-21T02:29:55.885Z,18.80
2019-04-21T02:32:43.864Z,18.57
2019-04-21T02:35:18.551Z,18.60
2019-04-21T02:37:44.811Z,18.70
2019-04-21T02:40:18.502Z,18.70
2019-04-21T02:42:46.392Z,18.03
2019-04-21T02:45:19.071Z,17.53
2019-04-21T02:48:04.055Z,18.20
2019-04-21T02:52:56.432Z,18.13
2019-04-21T02:55:22.212Z,18.80
2019-04-21T02:57:59.953Z,19.97
2019-04-21T03:00:29.910Z,18.37
2019-04-21T03:03:13.985Z,19.30
2019-04-21T03:06:25.141Z,19.23
2019-04-21T03:08:49.679Z,17.73
2019-04-21T03:13:47.148Z,19.07
2019-04-21T03:18:52.495Z,18.50
2019-04-21T03:23:54.054Z,18.97
2019-04-21T03:26:33.933Z,19.97
2019-04-21T03:28:54.521Z,18.57
2019-04-21T03:36:52.831Z,20.50
2019-04-21T03:39:01.798Z,19.45
2019-04-21T03:41:41.244Z,19.30
2019-04-21T03:44:12.333Z,18.23
2019-04-21T03:46:41.448Z,19.60
2019-04-21T03:49:19.247Z,20.83
2019-04-21T03:54:18.586Z,19.80
2019-04-21T03:56:59.300Z,19.60
2019-04-21T03:59:14.240Z,21.13
2019-04-21T04:10:34.803Z,20.67
2019-04-21T04:12:51.723Z,21.07
2019-04-21T04:15:36.775Z,19.80
2019-04-21T04:17:56.534Z,21.17
2019-04-21T04:20:28.169Z,21.43
2019-04-21T04:23:03.347Z,21.95
2019-04-21T04:25:29.632Z,21.53
2019-04-21T04:33:12.324Z,24.00
2019-04-21T04:38:13.559Z,24.00
2019-04-21T04:40:57.795Z,25.13
2019-04-21T04:43:26.944Z,23.60
2019-04-21T04:48:28.482Z,26.57
2019-04-21T04:58:56.413Z,25.33
2019-04-21T05:01:13.799Z,26.93
2019-04-21T05:09:07.808Z,26.82
2019-04-21T05:23:59.821Z,24.90
2019-04-21T05:26:32.781Z,23.90
2019-04-21T05:29:01.738Z,25.87
2019-04-21T05:32:08.102Z,24.53
2019-04-21T05:34:35.652Z,23.30
2019-04-21T05:37:47.287Z,25.43
2019-04-21T05:40:17.417Z,23.80
2019-04-21T05:42:51.025Z,24.60
2019-04-21T05:50:55.493Z,24.50
2019-04-21T05:53:34.376Z,22.93
2019-04-21T05:56:04.983Z,23.27
2019-04-21T05:58:32.945Z,22.60
2019-04-21T06:01:22.643Z,23.77
2019-04-21T06:03:44.889Z,23.23
2019-04-21T06:08:49.704Z,23.50
2019-04-21T06:11:19.169Z,23.17
2019-04-21T06:13:55.082Z,22.93
2019-04-21T06:16:24.178Z,25.13
2019-04-21T06:18:58.628Z,24.13
2019-04-21T06:21:22.078Z,23.60
2019-04-21T06:23:59.233Z,24.40
2019-04-21T06:28:59.383Z,23.93
2019-04-21T06:34:04.918Z,24.40
2019-04-21T06:37:01.700Z,25.87
2019-04-21T06:41:38.014Z,25.10
2019-04-21T06:46:45.829Z,23.50
2019-04-21T06:49:13.339Z,24.67
2019-04-21T06:51:48.180Z,24.35
2019-04-21T06:54:21.012Z,24.23
2019-04-21T06:56:58.604Z,25.93
2019-04-21T06:59:22.120Z,23.47
2019-04-21T07:01:56.684Z,24.33
2019-04-21T07:04:31.733Z,26.10
2019-04-21T07:07:02.760Z,24.33
2019-04-21T07:09:31.194Z,23.27
2019-04-21T07:11:59.710Z,24.97
2019-04-21T07:14:31.982Z,23.83
2019-04-21T07:17:16.464Z,23.10
2019-04-21T07:19:40.959Z,25.20
2019-04-21T07:22:12.367Z,24.67
2019-04-21T07:24:44.499Z,24.67
2019-04-21T07:27:15.551Z,24.90
2019-04-21T07:29:48.950Z,25.50
2019-04-21T07:32:14.070Z,24.47
2019-04-21T07:34:52.194Z,25.00
2019-04-21T07:37:18.552Z,24.33
2019-04-21T07:39:49.948Z,25.03
2019-04-21T07:42:19.010Z,23.43
2019-04-21T07:44:50.848Z,23.57
2019-04-21T07:47:26.783Z,25.57
2019-04-21T07:50:27.404Z,24.27
2019-04-21T07:53:14.455Z,24.73
2019-04-21T07:58:05.858Z,24.23
2019-04-21T08:03:15.924Z,25.10
2019-04-21T08:05:53.683Z,24.87
2019-04-21T08:08:15.998Z,25.57
2019-04-21T08:10:53.625Z,26.07
2019-04-21T08:13:28.911Z,26.27
2019-04-21T08:15:51.274Z,23.30
2019-04-21T08:18:28.345Z,24.97
2019-04-21T08:20:54.868Z,22.93
2019-04-21T08:23:31.919Z,24.40
2019-04-21T08:26:04.923Z,24.67
2019-04-21T08:28:32.055Z,24.83
2019-04-21T08:31:08.198Z,23.67
2019-04-21T08:33:41.475Z,24.23
2019-04-21T08:36:20.833Z,24.13
2019-04-21T08:38:41.756Z,22.37
2019-04-21T08:41:12.276Z,23.17
2019-04-21T08:43:46.887Z,23.27
2019-04-21T08:48:53.946Z,24.10
2019-04-21T08:51:31.971Z,24.23
2019-04-21T08:53:56.770Z,23.30
2019-04-21T08:56:27.706Z,22.60
2019-04-21T08:59:30.941Z,23.40
2019-04-21T09:02:12.699Z,23.60
2019-04-21T09:04:33.627Z,24.03
2019-04-21T09:07:28.752Z,21.63
2019-04-21T09:09:41.625Z,23.37
2019-04-21T09:12:10.296Z,23.40
2019-04-21T09:14:41.515Z,23.27
2019-04-21T09:17:08.037Z,23.80
2019-04-21T09:19:51.276Z,22.97
2019-04-21T09:22:13.248Z,25.10
2019-04-21T09:24:45.652Z,22.87
2019-04-21T09:27:14.227Z,24.10
2019-04-21T09:29:39.323Z,23.47
2019-04-21T09:32:03.815Z,22.50
2019-04-21T09:34:41.691Z,23.80
2019-04-21T09:37:20.342Z,23.80
2019-04-21T09:39:43.482Z,22.83
2019-04-21T09:42:11.419Z,21.60
2019-04-21T09:44:44.390Z,22.63
2019-04-21T09:47:15.910Z,23.53
2019-04-21T09:49:45.202Z,22.87
2019-04-21T09:52:21.055Z,21.43
2019-04-21T09:54:56.574Z,23.57
2019-04-21T09:57:29.976Z,22.03
2019-04-21T10:00:04.128Z,21.10
2019-04-21T10:02:34.235Z,23.43
2019-04-21T10:04:52.801Z,22.70
2019-04-21T10:07:28.163Z,23.37
2019-04-21T10:09:54.606Z,22.03
2019-04-21T10:12:25.540Z,22.07
2019-04-21T10:14:55.935Z,23.20
2019-04-21T10:17:35.352Z,22.07
2019-04-21T10:20:07.165Z,21.33
2019-04-21T10:22:37.571Z,22.77
2019-04-21T10:25:10.298Z,21.30
2019-04-21T10:27:41.279Z,21.53
2019-04-21T10:30:14.074Z,19.60
2019-04-21T10:32:43.938Z,19.85
2019-04-21T10:35:15.255Z,21.23
2019-04-21T10:37:58.167Z,23.07
2019-04-21T10:40:19.459Z,24.23
2019-04-21T10:42:50.052Z,24.70
2019-04-21T10:45:21.073Z,24.45
2019-04-21T10:47:52.690Z,26.12
2019-04-21T10:50:24.483Z,25.67
2019-04-21T10:53:13.390Z,26.15
2019-04-21T10:55:56.629Z,26.00
2019-04-21T10:58:20.326Z,25.33
2019-04-21T11:00:55.697Z,27.83
2019-04-21T11:03:47.142Z,27.20
2019-04-21T11:06:19.008Z,27.50
2019-04-21T11:08:53.867Z,24.57
2019-04-21T11:11:23.748Z,26.15
2019-04-21T11:13:54.895Z,26.55
2019-04-21T11:16:26.760Z,24.32
2019-04-21T11:18:57.819Z,22.05
2019-04-21T11:21:29.079Z,20.08
2019-04-21T11:23:58.893Z,19.35
2019-04-21T11:26:29.863Z,18.92
2019-04-21T11:29:01.079Z,18.80
2019-04-21T11:31:31.608Z,18.13
2019-04-21T11:34:03.031Z,17.60
2019-04-21T11:36:33.516Z,17.42
2019-04-21T11:39:30.779Z,18.92
2019-04-21T11:41:49.954Z,19.37
2019-04-21T11:44:23.143Z,18.12
2019-04-21T11:46:52.432Z,20.23
2019-04-21T11:49:24.149Z,19.93
2019-04-21T11:51:55.126Z,18.98
2019-04-21T11:54:26.775Z,20.43
2019-04-21T11:56:57.338Z,19.70
2019-04-21T11:59:28.010Z,21.35
2019-04-21T12:01:59.347Z,22.05
2019-04-21T12:04:29.939Z,22.35
2019-04-21T12:07:01.778Z,20.57
2019-04-21T12:09:33.303Z,20.95
2019-04-21T12:12:03.500Z,21.37
2019-04-21T12:14:34.212Z,22.87
2019-04-21T12:17:04.016Z,23.65
2019-04-21T12:19:34.713Z,23.32
2019-04-21T12:22:11.378Z,23.40
2019-04-21T12:24:38.065Z,24.57
2019-04-21T12:27:09.847Z,23.30
2019-04-21T12:29:39.982Z,23.60
2019-04-21T12:32:28.338Z,24.37
2019-04-21T12:34:59.696Z,23.87
2019-04-21T12:37:30.989Z,25.37
2019-04-21T12:40:03.111Z,24.35
2019-04-21T12:42:34.565Z,23.90
2019-04-21T12:45:05.622Z,24.35
2019-04-21T12:47:35.589Z,24.25
2019-04-21T12:50:06.814Z,25.48
2019-04-21T12:52:37.877Z,25.68
2019-04-21T12:55:09.668Z,24.20
2019-04-21T12:57:41.256Z,26.60
2019-04-21T13:00:15.132Z,26.80
2019-04-21T13:02:45.758Z,25.85
2019-04-21T13:05:17.720Z,27.05
2019-04-21T13:07:49.210Z,25.77
2019-04-21T13:10:20.182Z,24.43
2019-04-21T13:12:52.076Z,25.45
2019-04-21T13:15:22.765Z,27.73
2019-04-21T13:17:52.579Z,27.58
2019-04-21T13:20:23.259Z,26.75
2019-04-21T13:22:54.320Z,26.82
2019-04-21T13:25:25.617Z,27.27
2019-04-21T13:27:56.506Z,28.55
2019-04-21T13:30:26.521Z,28.35
2019-04-21T13:32:58.631Z,28.05
2019-04-21T13:35:28.891Z,29.40
2019-04-21T13:38:00.549Z,27.62
2019-04-21T13:41:01.123Z,28.87
2019-04-21T13:43:18.994Z,29.82
2019-04-21T13:45:49.937Z,27.00
2019-04-21T13:48:20.243Z,25.08
2019-04-21T13:50:51.211Z,24.67
2019-04-21T13:53:22.666Z,25.37
2019-04-21T13:55:53.217Z,23.42
2019-04-21T13:58:24.200Z,21.77
2019-04-21T14:00:54.260Z,21.85
2019-04-21T14:03:26.683Z,22.13
2019-04-21T14:05:56.664Z,20.95
2019-04-21T14:08:27.346Z,20.97
2019-04-21T14:10:57.578Z,20.17
2019-04-21T14:13:27.275Z,17.65
2019-04-21T14:15:57.934Z,16.55
2019-04-21T14:18:28.910Z,15.20
2019-04-21T14:20:58.816Z,15.03
2019-04-21T14:23:37.685Z,14.55
2019-04-21T14:26:01.666Z,14.40
2019-04-21T14:28:32.203Z,12.90
2019-04-21T14:31:04.320Z,10.63
2019-04-21T14:33:34.212Z,9.35
2019-04-21T14:36:05.215Z,8.78
2019-04-21T14:38:36.647Z,8.23
2019-04-21T14:41:08.281Z,7.87
2019-04-21T14:43:38.477Z,7.33
2019-04-21T14:46:24.837Z,7.15
2019-04-21T14:49:13.046Z,7.60
2019-04-21T14:51:56.967Z,7.00
2019-04-21T14:54:56.404Z,7.00
2019-04-21T14:57:27.359Z,7.17
2019-04-21T14:59:58.031Z,7.22
2019-04-21T15:02:29.906Z,6.83
2019-04-21T15:04:59.881Z,7.40
2019-04-21T15:07:30.958Z,7.58
2019-04-21T15:10:10.664Z,7.50
2019-04-21T15:12:34.004Z,7.03
2019-04-21T15:15:03.697Z,7.12
2019-04-21T15:17:33.772Z,7.30
2019-04-21T15:20:08.572Z,7.37
2019-04-21T15:22:34.843Z,7.87
2019-04-21T15:25:05.825Z,7.65
2019-04-21T15:27:36.929Z,8.40
2019-04-21T15:30:09.129Z,8.30
2019-04-21T15:32:40.212Z,8.03
2019-04-21T15:35:11.049Z,9.10
2019-04-21T15:37:42.051Z,9.40
2019-04-21T15:40:21.238Z,9.38
2019-04-21T15:42:44.367Z,9.63
2019-04-21T15:45:14.621Z,9.30
2019-04-21T15:47:44.318Z,9.18
2019-04-21T15:50:17.349Z,9.23
2019-04-21T15:53:03.508Z,9.60
2019-04-21T15:55:52.839Z,8.75
2019-04-21T15:58:46.357Z,8.35
2019-04-21T16:01:22.782Z,8.08
2019-04-21T16:03:58.298Z,8.45
2019-04-21T16:06:27.652Z,8.98
2019-04-21T16:09:00.883Z,9.87
2019-04-21T16:11:28.985Z,9.47
2019-04-21T16:13:59.630Z,9.17
2019-04-21T16:16:31.048Z,9.60
2019-04-21T16:19:00.537Z,9.45
2019-04-21T16:21:31.644Z,9.20
2019-04-21T16:24:02.649Z,8.25
2019-04-21T16:26:32.921Z,7.73
2019-04-21T16:29:04.912Z,7.67
2019-04-21T16:31:36.216Z,6.97
2019-04-21T16:34:07.282Z,6.30
2019-04-21T16:36:37.992Z,6.47
2019-04-21T16:39:09.514Z,6.20
2019-04-21T16:41:40.285Z,6.07
2019-04-21T16:44:11.334Z,6.30
2019-04-21T16:46:41.346Z,5.97
2019-04-21T16:49:11.817Z,5.97
2019-04-21T16:51:42.303Z,6.57
2019-04-21T16:54:23.928Z,6.50
2019-04-21T16:57:28.069Z,6.97
2019-04-21T17:00:04.419Z,7.80
2019-04-21T17:02:34.557Z,8.10
2019-04-21T17:05:04.694Z,7.37
2019-04-21T17:07:34.495Z,7.70
2019-04-21T17:10:04.562Z,7.77
2019-04-21T17:12:35.551Z,7.03
2019-04-21T17:15:18.946Z,7.97
2019-04-21T17:17:54.532Z,6.87
2019-04-21T17:20:19.267Z,8.07
2019-04-21T17:22:41.769Z,7.03
2019-04-21T17:25:11.590Z,7.47
2019-04-21T17:27:41.181Z,6.83
2019-04-21T17:30:12.592Z,7.57
2019-04-21T17:32:48.407Z,7.30
2019-04-21T17:35:14.294Z,6.80
2019-04-21T17:37:44.118Z,6.77
2019-04-21T17:40:15.671Z,6.77
2019-04-21T17:42:53.157Z,6.03
2019-04-21T17:45:17.235Z,6.53
2019-04-21T17:47:54.524Z,6.33
2019-04-21T17:50:57.099Z,6.70
2019-04-21T17:53:53.073Z,6.77
2019-04-21T17:56:48.056Z,6.00
2019-04-21T17:59:13.903Z,6.20
2019-04-21T18:01:45.173Z,6.37
2019-04-21T18:04:14.852Z,5.97
2019-04-21T18:06:59.274Z,6.43
2019-04-21T18:09:44.162Z,6.33
2019-04-21T18:12:09.161Z,5.93
2019-04-21T18:14:20.723Z,5.17
2019-04-21T18:16:52.032Z,5.23
2019-04-21T18:19:26.815Z,5.73
2019-04-21T18:22:03.876Z,5.67
2019-04-21T18:24:42.806Z,6.10
2019-04-21T18:27:07.410Z,5.20
2019-04-21T18:29:36.591Z,5.27
2019-04-21T18:32:08.344Z,6.00
2019-04-21T18:35:00.444Z,5.40
2019-04-21T18:37:50.819Z,6.53
2019-04-21T18:40:25.611Z,5.97
2019-04-21T18:43:23.512Z,6.43
2019-04-21T18:46:17.580Z,6.03
2019-04-21T18:48:39.851Z,7.07
2019-04-21T18:51:37.905Z,6.23
2019-04-21T18:54:26.874Z,5.83
2019-04-21T18:56:50.991Z,5.87
2019-04-21T18:59:08.870Z,6.17
2019-04-21T19:01:40.268Z,10.80
2019-04-21T19:04:15.497Z,12.67
2019-04-21T19:06:59.466Z,9.73
2019-04-21T19:09:35.848Z,7.03
2019-04-21T19:12:10.135Z,7.43
2019-04-21T19:14:36.143Z,5.77
2019-04-21T19:17:39.602Z,5.47
2019-04-21T19:19:46.455Z,6.30
2019-04-21T19:22:10.451Z,6.73
2019-04-21T19:24:59.356Z,7.60
2019-04-21T19:27:20.866Z,10.90
2019-04-21T19:29:57.297Z,7.33
2019-04-21T19:32:19.878Z,5.93
2019-04-21T19:34:35.904Z,6.73
2019-04-21T19:37:10.951Z,5.97
2019-04-21T19:39:45.925Z,5.87
2019-04-21T19:42:18.255Z,6.23
2019-04-21T19:44:52.186Z,5.33
2019-04-21T19:47:28.271Z,4.93
2019-04-21T19:50:00.313Z,5.90
2019-04-21T19:52:25.559Z,6.30
2019-04-21T19:54:45.483Z,6.47
2019-04-21T19:57:13.284Z,5.97
2019-04-21T19:59:49.637Z,6.10
2019-04-21T20:02:14.675Z,6.83
2019-04-21T20:04:53.462Z,7.47
2019-04-21T20:07:27.585Z,9.80
2019-04-21T20:10:11.656Z,10.17
2019-04-21T20:12:41.326Z,8.00
2019-04-21T20:15:20.499Z,8.07
2019-04-21T20:17:36.455Z,8.43
2019-04-21T20:19:54.204Z,7.80
2019-04-21T20:22:30.969Z,8.30
2019-04-21T20:25:03.958Z,8.20
2019-04-21T20:27:38.668Z,7.83
2019-04-21T20:30:19.278Z,8.30
2019-04-21T20:32:48.954Z,8.23
2019-04-21T20:35:32.340Z,8.23
2019-04-21T20:37:47.997Z,8.80
2019-04-21T20:40:18.066Z,8.40
2019-04-21T20:42:49.478Z,9.13
2019-04-21T20:45:34.889Z,9.10
2019-04-21T20:47:44.706Z,8.80
2019-04-21T20:50:27.397Z,8.47
2019-04-21T20:52:58.389Z,8.87
2019-04-21T20:55:27.502Z,9.30
2019-04-21T20:57:56.559Z,8.63
2019-04-21T21:00:39.191Z,9.33
2019-04-21T21:03:12.196Z,9.10
2019-04-21T21:05:37.098Z,9.17
2019-04-21T21:08:21.455Z,8.67
2019-04-21T21:10:41.287Z,9.43
2019-04-21T21:13:22.231Z,10.00
2019-04-21T21:15:52.653Z,9.17
2019-04-21T21:18:26.897Z,10.67
2019-04-21T21:20:48.346Z,9.03
2019-04-21T21:23:14.562Z,9.90
2019-04-21T21:25:50.757Z,10.47
2019-04-21T21:28:22.638Z,10.13
2019-04-21T21:30:54.737Z,9.93
2019-04-21T21:33:48.561Z,9.80
2019-04-21T21:35:50.099Z,9.97
2019-04-21T21:38:30.948Z,10.77
2019-04-21T21:40:54.651Z,10.03
2019-04-21T21:43:19.204Z,10.13
2019-04-21T21:45:50.054Z,10.37
2019-04-21T21:48:32.283Z,10.13
2019-04-21T21:50:56.628Z,9.63
2019-04-21T21:53:23.784Z,10.77
2019-04-21T21:55:52.929Z,10.10
2019-04-21T21:58:28.637Z,9.93
2019-04-21T22:00:58.988Z,11.00
2019-04-21T22:03:32.998Z,10.30
2019-04-21T22:06:07.292Z,10.30
2019-04-21T22:08:30.430Z,9.97
2019-04-21T22:11:01.359Z,9.83
2019-04-21T22:13:39.914Z,9.50
2019-04-21T22:16:07.003Z,9.87
2019-04-21T22:18:56.572Z,9.47
2019-04-21T22:21:13.872Z,9.93
2019-04-21T22:23:46.997Z,9.47
2019-04-21T22:26:07.443Z,9.93
2019-04-21T22:28:37.768Z,8.73
2019-04-21T22:31:14.967Z,9.63
2019-04-21T22:33:47.881Z,9.17
2019-04-21T22:36:26.242Z,9.53
2019-04-21T22:38:59.609Z,9.40
2019-04-21T22:41:24.531Z,10.27
2019-04-21T22:43:48.220Z,9.97
2019-04-21T22:46:18.165Z,8.77
2019-04-21T22:48:53.128Z,10.07
2019-04-21T22:51:29.495Z,9.47
2019-04-21T22:53:54.289Z,8.90
2019-04-21T22:56:26.828Z,9.70
2019-04-21T22:58:54.910Z,9.80
2019-04-21T23:01:33.396Z,8.97
2019-04-21T23:04:00.873Z,10.07
2019-04-21T23:06:30.819Z,9.40
2019-04-21T23:08:59.223Z,9.13
2019-04-21T23:11:37.382Z,9.03
2019-04-21T23:14:05.005Z,9.60
2019-04-21T23:16:35.333Z,9.50
2019-04-21T23:19:19.789Z,8.97
2019-04-21T23:21:55.331Z,9.30
2019-04-21T23:24:31.608Z,9.70
2019-04-21T23:26:50.711Z,10.23
2019-04-21T23:29:41.225Z,8.87
2019-04-21T23:31:57.810Z,9.53
2019-04-21T23:34:17.773Z,9.30
2019-04-21T23:36:52.295Z,9.77
2019-04-21T23:39:20.914Z,10.07
2019-04-21T23:41:50.422Z,9.70
2019-04-21T23:44:17.229Z,10.03
2019-04-21T23:46:51.099Z,11.23
2019-04-21T23:49:31.920Z,10.33
2019-04-21T23:51:58.395Z,11.20
2019-04-21T23:54:20.815Z,10.67
2019-04-21T23:56:51.752Z,10.63
2019-04-21T23:59:22.592Z,11.00
